sensor_id;sensor_type;location;lat;lon;timestamp;temperature;humidity
4584;DHT22;2304;47.606;12.186;2023-02-01T00:03:10;4.00;64.10
4584;DHT22;2304;47.606;12.186;2023-02-01T00:08:13;4.10;64.00
4584;DHT22;2304;47.606;12.186;2023-02-01T00:13:16;4.00;64.20
4584;DHT22;2304;47.606;12.186;2023-02-01T00:18:18;4.10;64.80
4584;DHT22;2304;47.606;12.186;2023-02-01T00:23:19;4.00;64.20
4584;DHT22;2304;47.606;12.186;2023-02-01T00:28:23;3.90;64.00
4584;DHT22;2304;47.606;12.186;2023-02-01T00:33:24;3.90;63.80
4584;DHT22;2304;47.606;12.186;2023-02-01T00:38:26;3.80;64.30
4584;DHT22;2304;47.606;12.186;2023-02-01T00:43:30;3.70;64.40
4584;DHT22;2304;47.606;12.186;2023-02-01T00:48:32;3.70;64.70
4584;DHT22;2304;47.606;12.186;2023-02-01T00:53:34;3.70;64.90
4584;DHT22;2304;47.606;12.186;2023-02-01T00:58:38;3.80;64.30
4584;DHT22;2304;47.606;12.186;2023-02-01T01:03:42;3.90;63.80
4584;DHT22;2304;47.606;12.186;2023-02-01T01:08:44;3.90;64.30
4584;DHT22;2304;47.606;12.186;2023-02-01T01:13:48;3.80;65.10
4584;DHT22;2304;47.606;12.186;2023-02-01T01:18:50;3.80;64.90
4584;DHT22;2304;47.606;12.186;2023-02-01T01:23:52;3.70;65.10
4584;DHT22;2304;47.606;12.186;2023-02-01T01:28:57;3.80;65.10
4584;DHT22;2304;47.606;12.186;2023-02-01T01:33:59;3.80;65.10
4584;DHT22;2304;47.606;12.186;2023-02-01T01:39:01;3.90;65.30
4584;DHT22;2304;47.606;12.186;2023-02-01T01:44:06;3.90;65.30
4584;DHT22;2304;47.606;12.186;2023-02-01T01:49:11;3.80;66.10
4584;DHT22;2304;47.606;12.186;2023-02-01T01:54:17;3.90;66.00
4584;DHT22;2304;47.606;12.186;2023-02-01T01:59:22;3.90;66.50
4584;DHT22;2304;47.606;12.186;2023-02-01T02:04:25;3.90;66.60
4584;DHT22;2304;47.606;12.186;2023-02-01T02:09:27;3.90;66.70
4584;DHT22;2304;47.606;12.186;2023-02-01T02:14:30;4.00;65.80
4584;DHT22;2304;47.606;12.186;2023-02-01T02:25:48;3.90;66.60
4584;DHT22;2304;47.606;12.186;2023-02-01T02:31:13;3.90;66.40
4584;DHT22;2304;47.606;12.186;2023-02-01T02:36:36;4.00;66.30
4584;DHT22;2304;47.606;12.186;2023-02-01T02:41:47;3.90;66.60
4584;DHT22;2304;47.606;12.186;2023-02-01T02:47:13;4.00;66.40
4584;DHT22;2304;47.606;12.186;2023-02-01T02:52:27;3.90;66.70
4584;DHT22;2304;47.606;12.186;2023-02-01T02:57:56;3.90;66.90
4584;DHT22;2304;47.606;12.186;2023-02-01T03:03:17;3.90;67.20
4584;DHT22;2304;47.606;12.186;2023-02-01T03:08:38;3.90;66.80
4584;DHT22;2304;47.606;12.186;2023-02-01T03:13:48;3.90;66.30
4584;DHT22;2304;47.606;12.186;2023-02-01T03:18:54;3.90;66.20
4584;DHT22;2304;47.606;12.186;2023-02-01T03:24:03;3.90;66.10
4584;DHT22;2304;47.606;12.186;2023-02-01T03:29:11;3.90;66.70
4584;DHT22;2304;47.606;12.186;2023-02-01T03:34:14;3.90;67.00
4584;DHT22;2304;47.606;12.186;2023-02-01T03:39:22;3.90;66.80
4584;DHT22;2304;47.606;12.186;2023-02-01T03:44:28;3.90;66.70
4584;DHT22;2304;47.606;12.186;2023-02-01T03:49:35;3.80;66.50
4584;DHT22;2304;47.606;12.186;2023-02-01T03:54:39;3.80;67.00
4584;DHT22;2304;47.606;12.186;2023-02-01T03:59:44;3.80;67.70
4584;DHT22;2304;47.606;12.186;2023-02-01T04:04:46;3.70;68.20
4584;DHT22;2304;47.606;12.186;2023-02-01T04:09:49;3.70;67.70
4584;DHT22;2304;47.606;12.186;2023-02-01T04:14:51;3.70;67.80
4584;DHT22;2304;47.606;12.186;2023-02-01T04:19:52;3.70;67.50
4584;DHT22;2304;47.606;12.186;2023-02-01T04:24:56;3.70;67.30
4584;DHT22;2304;47.606;12.186;2023-02-01T04:29:58;3.70;68.00
4584;DHT22;2304;47.606;12.186;2023-02-01T04:34:59;3.60;68.10
4584;DHT22;2304;47.606;12.186;2023-02-01T04:40:03;3.60;67.70
4584;DHT22;2304;47.606;12.186;2023-02-01T04:45:06;3.50;68.00
4584;DHT22;2304;47.606;12.186;2023-02-01T04:50:10;3.40;68.00
4584;DHT22;2304;47.606;12.186;2023-02-01T04:55:13;3.50;68.30
4584;DHT22;2304;47.606;12.186;2023-02-01T05:00:15;3.50;68.20
4584;DHT22;2304;47.606;12.186;2023-02-01T05:05:17;3.50;67.90
4584;DHT22;2304;47.606;12.186;2023-02-01T05:10:21;3.50;68.50
4584;DHT22;2304;47.606;12.186;2023-02-01T05:15:23;3.60;68.40
4584;DHT22;2304;47.606;12.186;2023-02-01T05:20:24;3.60;67.90
4584;DHT22;2304;47.606;12.186;2023-02-01T05:25:28;3.60;68.30
4584;DHT22;2304;47.606;12.186;2023-02-01T05:30:29;3.50;68.60
4584;DHT22;2304;47.606;12.186;2023-02-01T05:35:32;3.50;68.90
4584;DHT22;2304;47.606;12.186;2023-02-01T05:40:36;3.50;69.20
4584;DHT22;2304;47.606;12.186;2023-02-01T05:45:37;3.30;69.10
4584;DHT22;2304;47.606;12.186;2023-02-01T05:50:39;3.20;69.30
4584;DHT22;2304;47.606;12.186;2023-02-01T05:55:42;3.20;69.50
4584;DHT22;2304;47.606;12.186;2023-02-01T06:00:44;3.20;70.30
4584;DHT22;2304;47.606;12.186;2023-02-01T06:05:47;3.10;70.30
4584;DHT22;2304;47.606;12.186;2023-02-01T06:10:50;3.10;71.00
4584;DHT22;2304;47.606;12.186;2023-02-01T06:15:53;3.00;70.70
4584;DHT22;2304;47.606;12.186;2023-02-01T06:20:57;3.00;70.60
4584;DHT22;2304;47.606;12.186;2023-02-01T06:26:03;3.00;71.10
4584;DHT22;2304;47.606;12.186;2023-02-01T06:31:06;2.90;71.40
4584;DHT22;2304;47.606;12.186;2023-02-01T06:36:10;2.90;71.70
4584;DHT22;2304;47.606;12.186;2023-02-01T06:41:13;2.90;71.50
4584;DHT22;2304;47.606;12.186;2023-02-01T06:46:15;3.00;72.20
4584;DHT22;2304;47.606;12.186;2023-02-01T06:51:22;3.20;71.70
4584;DHT22;2304;47.606;12.186;2023-02-01T06:56:25;3.20;70.70
4584;DHT22;2304;47.606;12.186;2023-02-01T07:01:27;3.10;71.10
4584;DHT22;2304;47.606;12.186;2023-02-01T07:06:28;3.20;71.30
4584;DHT22;2304;47.606;12.186;2023-02-01T07:11:32;3.20;71.00
4584;DHT22;2304;47.606;12.186;2023-02-01T07:16:33;3.20;71.50
4584;DHT22;2304;47.606;12.186;2023-02-01T07:21:35;3.10;71.40
4584;DHT22;2304;47.606;12.186;2023-02-01T07:26:38;3.10;72.20
4584;DHT22;2304;47.606;12.186;2023-02-01T07:31:40;3.00;73.20
4584;DHT22;2304;47.606;12.186;2023-02-01T07:36:42;3.00;72.60
4584;DHT22;2304;47.606;12.186;2023-02-01T07:41:45;3.00;73.10
4584;DHT22;2304;47.606;12.186;2023-02-01T07:46:47;3.00;73.20
4584;DHT22;2304;47.606;12.186;2023-02-01T07:51:49;2.80;74.20
4584;DHT22;2304;47.606;12.186;2023-02-01T07:56:52;2.80;74.50
4584;DHT22;2304;47.606;12.186;2023-02-01T08:01:54;2.70;74.80
4584;DHT22;2304;47.606;12.186;2023-02-01T08:06:56;2.70;74.60
4584;DHT22;2304;47.606;12.186;2023-02-01T08:11:59;2.80;74.10
4584;DHT22;2304;47.606;12.186;2023-02-01T08:17:01;2.80;74.70
4584;DHT22;2304;47.606;12.186;2023-02-01T08:22:03;2.70;75.20
4584;DHT22;2304;47.606;12.186;2023-02-01T08:27:08;2.70;74.80
4584;DHT22;2304;47.606;12.186;2023-02-01T08:32:10;2.70;74.40
4584;DHT22;2304;47.606;12.186;2023-02-01T08:37:12;2.70;74.50
4584;DHT22;2304;47.606;12.186;2023-02-01T08:42:15;2.80;74.40
4584;DHT22;2304;47.606;12.186;2023-02-01T08:47:34;2.80;74.10
4584;DHT22;2304;47.606;12.186;2023-02-01T08:52:36;3.00;74.30
4584;DHT22;2304;47.606;12.186;2023-02-01T08:57:40;3.00;71.70
4584;DHT22;2304;47.606;12.186;2023-02-01T09:02:42;3.10;71.50
4584;DHT22;2304;47.606;12.186;2023-02-01T09:07:44;3.20;71.10
4584;DHT22;2304;47.606;12.186;2023-02-01T09:12:47;3.20;71.30
4584;DHT22;2304;47.606;12.186;2023-02-01T09:17:48;3.30;71.20
4584;DHT22;2304;47.606;12.186;2023-02-01T09:22:50;3.20;70.70
4584;DHT22;2304;47.606;12.186;2023-02-01T09:27:54;3.10;71.30
4584;DHT22;2304;47.606;12.186;2023-02-01T09:32:56;3.20;71.60
4584;DHT22;2304;47.606;12.186;2023-02-01T09:37:58;3.30;70.00
4584;DHT22;2304;47.606;12.186;2023-02-01T09:43:11;3.40;70.30
4584;DHT22;2304;47.606;12.186;2023-02-01T09:48:20;3.50;69.70
4584;DHT22;2304;47.606;12.186;2023-02-01T09:53:26;3.50;70.40
4584;DHT22;2304;47.606;12.186;2023-02-01T09:58:35;3.60;70.00
4584;DHT22;2304;47.606;12.186;2023-02-01T10:03:37;3.50;69.00
4584;DHT22;2304;47.606;12.186;2023-02-01T10:08:54;3.70;69.20
4584;DHT22;2304;47.606;12.186;2023-02-01T10:14:06;3.80;67.70
4584;DHT22;2304;47.606;12.186;2023-02-01T10:19:27;3.80;66.50
4584;DHT22;2304;47.606;12.186;2023-02-01T10:24:38;3.80;67.00
4584;DHT22;2304;47.606;12.186;2023-02-01T10:29:44;3.90;64.50
4584;DHT22;2304;47.606;12.186;2023-02-01T10:34:48;3.90;64.60
4584;DHT22;2304;47.606;12.186;2023-02-01T10:39:53;4.00;64.70
4584;DHT22;2304;47.606;12.186;2023-02-01T10:44:59;4.00;64.10
4584;DHT22;2304;47.606;12.186;2023-02-01T10:50:13;4.10;64.20
4584;DHT22;2304;47.606;12.186;2023-02-01T10:55:37;4.20;62.90
4584;DHT22;2304;47.606;12.186;2023-02-01T11:00:45;4.30;63.00
4584;DHT22;2304;47.606;12.186;2023-02-01T11:05:48;4.30;61.10
4584;DHT22;2304;47.606;12.186;2023-02-01T11:10:58;4.40;61.30
4584;DHT22;2304;47.606;12.186;2023-02-01T11:16:03;4.40;60.60
4584;DHT22;2304;47.606;12.186;2023-02-01T11:21:06;4.60;61.20
4584;DHT22;2304;47.606;12.186;2023-02-01T11:26:12;4.60;60.90
4584;DHT22;2304;47.606;12.186;2023-02-01T11:31:16;4.70;61.70
4584;DHT22;2304;47.606;12.186;2023-02-01T11:36:21;4.80;61.30
4584;DHT22;2304;47.606;12.186;2023-02-01T11:41:26;4.90;60.70
4584;DHT22;2304;47.606;12.186;2023-02-01T11:46:33;4.90;60.10
4584;DHT22;2304;47.606;12.186;2023-02-01T11:51:43;5.00;59.70
4584;DHT22;2304;47.606;12.186;2023-02-01T11:56:55;5.20;59.30
4584;DHT22;2304;47.606;12.186;2023-02-01T12:02:14;5.20;58.90
4584;DHT22;2304;47.606;12.186;2023-02-01T12:07:27;5.40;58.00
4584;DHT22;2304;47.606;12.186;2023-02-01T12:12:36;5.40;58.10
4584;DHT22;2304;47.606;12.186;2023-02-01T12:18:04;5.50;58.30
4584;DHT22;2304;47.606;12.186;2023-02-01T12:23:25;5.60;58.20
4584;DHT22;2304;47.606;12.186;2023-02-01T12:28:43;5.80;58.80
4584;DHT22;2304;47.606;12.186;2023-02-01T12:34:07;5.90;59.60
4584;DHT22;2304;47.606;12.186;2023-02-01T12:39:20;6.00;59.60
4584;DHT22;2304;47.606;12.186;2023-02-01T12:44:32;6.10;59.30
4584;DHT22;2304;47.606;12.186;2023-02-01T12:49:47;6.30;57.80
4584;DHT22;2304;47.606;12.186;2023-02-01T12:54:55;6.30;56.80
4584;DHT22;2304;47.606;12.186;2023-02-01T13:00:06;6.30;56.20
4584;DHT22;2304;47.606;12.186;2023-02-01T13:05:17;6.40;56.10
4584;DHT22;2304;47.606;12.186;2023-02-01T13:10:25;6.50;56.00
4584;DHT22;2304;47.606;12.186;2023-02-01T13:15:33;6.50;56.20
4584;DHT22;2304;47.606;12.186;2023-02-01T13:20:47;6.60;55.70
4584;DHT22;2304;47.606;12.186;2023-02-01T13:25:50;6.80;59.00
4584;DHT22;2304;47.606;12.186;2023-02-01T13:36:49;6.80;54.90
4584;DHT22;2304;47.606;12.186;2023-02-01T13:41:57;6.70;53.70
4584;DHT22;2304;47.606;12.186;2023-02-01T13:47:02;6.70;55.40
4584;DHT22;2304;47.606;12.186;2023-02-01T13:52:05;6.70;55.80
4584;DHT22;2304;47.606;12.186;2023-02-01T13:57:32;7.00;55.00
4584;DHT22;2304;47.606;12.186;2023-02-01T14:02:49;6.70;55.00
4584;DHT22;2304;47.606;12.186;2023-02-01T14:08:13;6.80;55.20
4584;DHT22;2304;47.606;12.186;2023-02-01T14:13:25;6.90;55.10
4584;DHT22;2304;47.606;12.186;2023-02-01T14:18:54;6.90;54.30
4584;DHT22;2304;47.606;12.186;2023-02-01T14:24:01;7.00;54.20
4584;DHT22;2304;47.606;12.186;2023-02-01T14:34:38;7.10;54.50
4584;DHT22;2304;47.606;12.186;2023-02-01T14:39:53;7.20;54.00
4584;DHT22;2304;47.606;12.186;2023-02-01T14:50:38;7.20;55.20
4584;DHT22;2304;47.606;12.186;2023-02-01T14:55:44;7.00;55.10
4584;DHT22;2304;47.606;12.186;2023-02-01T15:00:50;7.00;55.30
4584;DHT22;2304;47.606;12.186;2023-02-01T15:05:55;6.90;55.70
4584;DHT22;2304;47.606;12.186;2023-02-01T15:11:01;6.80;55.40
4584;DHT22;2304;47.606;12.186;2023-02-01T15:16:09;6.90;55.20
4584;DHT22;2304;47.606;12.186;2023-02-01T15:21:17;6.90;53.70
4584;DHT22;2304;47.606;12.186;2023-02-01T15:26:28;6.90;53.50
4584;DHT22;2304;47.606;12.186;2023-02-01T15:31:33;7.00;53.00
4584;DHT22;2304;47.606;12.186;2023-02-01T15:36:35;7.00;51.90
4584;DHT22;2304;47.606;12.186;2023-02-01T15:41:39;7.00;52.00
4584;DHT22;2304;47.606;12.186;2023-02-01T15:46:45;7.00;52.20
4584;DHT22;2304;47.606;12.186;2023-02-01T15:51:48;6.90;54.20
4584;DHT22;2304;47.606;12.186;2023-02-01T15:56:54;6.90;53.10
4584;DHT22;2304;47.606;12.186;2023-02-01T16:01:56;6.80;51.40
4584;DHT22;2304;47.606;12.186;2023-02-01T16:07:00;6.90;52.30
4584;DHT22;2304;47.606;12.186;2023-02-01T16:12:33;6.90;51.60
4584;DHT22;2304;47.606;12.186;2023-02-01T16:17:36;7.00;51.90
4584;DHT22;2304;47.606;12.186;2023-02-01T16:22:38;7.00;53.00
4584;DHT22;2304;47.606;12.186;2023-02-01T16:27:41;6.90;54.50
4584;DHT22;2304;47.606;12.186;2023-02-01T16:32:42;7.00;54.00
4584;DHT22;2304;47.606;12.186;2023-02-01T16:37:44;6.70;54.50
4584;DHT22;2304;47.606;12.186;2023-02-01T16:42:49;6.70;53.30
4584;DHT22;2304;47.606;12.186;2023-02-01T16:47:53;6.60;54.30
4584;DHT22;2304;47.606;12.186;2023-02-01T16:52:56;6.60;54.50
4584;DHT22;2304;47.606;12.186;2023-02-01T16:57:59;6.60;53.80
4584;DHT22;2304;47.606;12.186;2023-02-01T17:03:01;6.60;52.60
4584;DHT22;2304;47.606;12.186;2023-02-01T17:08:05;7.00;53.80
4584;DHT22;2304;47.606;12.186;2023-02-01T17:13:12;6.70;53.70
4584;DHT22;2304;47.606;12.186;2023-02-01T17:18:16;6.60;54.50
4584;DHT22;2304;47.606;12.186;2023-02-01T17:23:19;6.60;54.60
4584;DHT22;2304;47.606;12.186;2023-02-01T17:28:22;6.60;52.90
4584;DHT22;2304;47.606;12.186;2023-02-01T17:33:28;6.60;53.50
4584;DHT22;2304;47.606;12.186;2023-02-01T17:38:30;6.60;53.50
4584;DHT22;2304;47.606;12.186;2023-02-01T17:43:33;6.60;52.80
4584;DHT22;2304;47.606;12.186;2023-02-01T17:48:35;6.60;53.90
4584;DHT22;2304;47.606;12.186;2023-02-01T17:53:37;6.60;53.70
4584;DHT22;2304;47.606;12.186;2023-02-01T17:58:40;6.50;54.10
4584;DHT22;2304;47.606;12.186;2023-02-01T18:03:42;6.50;53.60
4584;DHT22;2304;47.606;12.186;2023-02-01T18:08:44;6.50;53.10
4584;DHT22;2304;47.606;12.186;2023-02-01T18:13:49;6.50;52.60
4584;DHT22;2304;47.606;12.186;2023-02-01T18:18:51;6.60;51.70
4584;DHT22;2304;47.606;12.186;2023-02-01T18:23:53;6.50;51.30
4584;DHT22;2304;47.606;12.186;2023-02-01T18:28:56;6.70;50.70
4584;DHT22;2304;47.606;12.186;2023-02-01T18:33:59;6.60;49.70
4584;DHT22;2304;47.606;12.186;2023-02-01T18:39:01;6.70;49.80
4584;DHT22;2304;47.606;12.186;2023-02-01T18:44:04;6.70;49.20
4584;DHT22;2304;47.606;12.186;2023-02-01T18:49:06;6.70;48.50
4584;DHT22;2304;47.606;12.186;2023-02-01T18:54:09;6.70;48.80
4584;DHT22;2304;47.606;12.186;2023-02-01T18:59:12;7.00;48.50
4584;DHT22;2304;47.606;12.186;2023-02-01T19:04:16;6.70;48.70
4584;DHT22;2304;47.606;12.186;2023-02-01T19:09:18;6.60;48.00
4584;DHT22;2304;47.606;12.186;2023-02-01T19:14:21;6.60;46.80
4584;DHT22;2304;47.606;12.186;2023-02-01T19:19:23;6.70;46.90
4584;DHT22;2304;47.606;12.186;2023-02-01T19:24:25;6.80;47.20
4584;DHT22;2304;47.606;12.186;2023-02-01T19:29:29;6.80;46.20
4584;DHT22;2304;47.606;12.186;2023-02-01T19:34:31;6.80;45.70
4584;DHT22;2304;47.606;12.186;2023-02-01T19:39:33;6.80;45.70
4584;DHT22;2304;47.606;12.186;2023-02-01T19:44:38;6.80;45.50
4584;DHT22;2304;47.606;12.186;2023-02-01T19:49:40;6.80;45.20
4584;DHT22;2304;47.606;12.186;2023-02-01T19:54:42;6.80;45.80
4584;DHT22;2304;47.606;12.186;2023-02-01T19:59:45;6.80;46.00
4584;DHT22;2304;47.606;12.186;2023-02-01T20:04:47;6.80;46.20
4584;DHT22;2304;47.606;12.186;2023-02-01T20:09:49;6.80;45.00
4584;DHT22;2304;47.606;12.186;2023-02-01T20:14:52;6.90;45.20
4584;DHT22;2304;47.606;12.186;2023-02-01T20:19:55;6.90;45.70
4584;DHT22;2304;47.606;12.186;2023-02-01T20:24:57;6.80;45.60
4584;DHT22;2304;47.606;12.186;2023-02-01T20:30:00;6.80;44.90
4584;DHT22;2304;47.606;12.186;2023-02-01T20:35:02;6.90;45.70
4584;DHT22;2304;47.606;12.186;2023-02-01T20:40:05;6.90;45.80
4584;DHT22;2304;47.606;12.186;2023-02-01T20:45:09;6.90;46.40
4584;DHT22;2304;47.606;12.186;2023-02-01T20:50:11;6.80;47.70
4584;DHT22;2304;47.606;12.186;2023-02-01T20:55:12;6.70;48.50
4584;DHT22;2304;47.606;12.186;2023-02-01T21:00:16;6.70;48.90
4584;DHT22;2304;47.606;12.186;2023-02-01T21:05:18;6.70;49.70
4584;DHT22;2304;47.606;12.186;2023-02-01T21:10:20;6.60;51.30
4584;DHT22;2304;47.606;12.186;2023-02-01T21:15:23;6.40;53.00
4584;DHT22;2304;47.606;12.186;2023-02-01T21:20:27;6.30;54.50
4584;DHT22;2304;47.606;12.186;2023-02-01T21:25:29;6.20;55.50
4584;DHT22;2304;47.606;12.186;2023-02-01T21:30:32;6.30;56.00
4584;DHT22;2304;47.606;12.186;2023-02-01T21:35:34;6.20;56.20
4584;DHT22;2304;47.606;12.186;2023-02-01T21:40:36;6.10;56.90
4584;DHT22;2304;47.606;12.186;2023-02-01T21:45:39;6.00;57.70
4584;DHT22;2304;47.606;12.186;2023-02-01T21:50:41;5.90;58.90
4584;DHT22;2304;47.606;12.186;2023-02-01T21:55:43;5.90;59.50
4584;DHT22;2304;47.606;12.186;2023-02-01T22:00:46;5.80;60.30
4584;DHT22;2304;47.606;12.186;2023-02-01T22:05:48;5.80;61.20
4584;DHT22;2304;47.606;12.186;2023-02-01T22:10:50;5.80;61.30
4584;DHT22;2304;47.606;12.186;2023-02-01T22:15:54;5.70;62.10
4584;DHT22;2304;47.606;12.186;2023-02-01T22:20:57;5.60;62.30
4584;DHT22;2304;47.606;12.186;2023-02-01T22:26:00;5.60;63.50
4584;DHT22;2304;47.606;12.186;2023-02-01T22:31:06;5.40;63.70
4584;DHT22;2304;47.606;12.186;2023-02-01T22:36:08;5.40;65.10
4584;DHT22;2304;47.606;12.186;2023-02-01T22:41:10;5.40;66.00
4584;DHT22;2304;47.606;12.186;2023-02-01T22:46:15;5.30;66.50
4584;DHT22;2304;47.606;12.186;2023-02-01T22:51:20;5.30;67.80
4584;DHT22;2304;47.606;12.186;2023-02-01T22:56:23;5.30;68.10
4584;DHT22;2304;47.606;12.186;2023-02-01T23:01:27;5.00;68.40
4584;DHT22;2304;47.606;12.186;2023-02-01T23:06:29;5.30;69.00
4584;DHT22;2304;47.606;12.186;2023-02-01T23:11:32;5.30;69.00
4584;DHT22;2304;47.606;12.186;2023-02-01T23:16:35;5.30;69.50
4584;DHT22;2304;47.606;12.186;2023-02-01T23:21:37;5.30;69.10
4584;DHT22;2304;47.606;12.186;2023-02-01T23:26:39;5.30;69.00
4584;DHT22;2304;47.606;12.186;2023-02-01T23:31:43;5.40;69.50
4584;DHT22;2304;47.606;12.186;2023-02-01T23:36:45;5.30;69.80
4584;DHT22;2304;47.606;12.186;2023-02-01T23:41:46;5.20;69.80
4584;DHT22;2304;47.606;12.186;2023-02-01T23:46:49;5.20;70.30
4584;DHT22;2304;47.606;12.186;2023-02-01T23:51:51;5.20;70.80
4584;DHT22;2304;47.606;12.186;2023-02-01T23:56:53;5.10;71.50
